Time;durP1;ratioP1;P1;durP2;ratioP2;P2;SDS_P1;SDS_P2;PMS_P1;PMS_P2;Temp;Humidity;BMP_temperature;BMP_pressure;BME280_temperature;BME280_humidity;BME280_pressure;Samples;Min_cycle;Max_cycle;Signal;HPM_P1;HPM_P2
2022/01/17 00:00:56;;;;;;;;;37.75;33.75;;;;;6.96;83.66;103221.66;5032268;28;45349;-66
2022/01/17 00:03:24;;;;;;;;;42.25;35.00;;;;;7.09;83.78;103229.22;5047066;28;46961;-66
2022/01/17 00:05:53;;;;;;;;;41.25;34.25;;;;;7.11;83.76;103232.75;5036993;28;45335;-66
2022/01/17 00:08:19;;;;;;;;;51.00;32.25;;;;;7.11;83.27;103224.66;5032744;28;45354;-67
2022/01/17 00:10:44;;;;;;;;;39.75;32.75;;;;;7.20;83.54;103237.78;5039351;28;45360;-66
2022/01/17 00:13:14;;;;;;;;;39.25;35.25;;;;;7.16;82.97;103234.31;5034553;28;46471;-66
2022/01/17 00:15:48;;;;;;;;;38.50;33.75;;;;;7.23;83.44;103237.66;5040068;28;45326;-66
2022/01/17 00:20:41;;;;;;;;;46.25;36.50;;;;;7.23;82.92;103230.41;5036626;28;45437;-66
2022/01/17 00:23:06;;;;;;;;;40.75;35.00;;;;;7.21;83.15;103224.19;5021451;28;46486;-66
2022/01/17 00:25:32;;;;;;;;;38.50;33.50;;;;;7.20;82.79;103227.84;5023912;28;45539;-66
2022/01/17 00:27:57;;;;;;;;;37.75;33.75;;;;;7.03;83.71;103222.28;5027869;28;45638;-67
2022/01/17 00:30:22;;;;;;;;;44.25;35.25;;;;;7.06;83.94;103227.56;5050983;28;45322;-66
2022/01/17 00:32:48;;;;;;;;;41.50;37.75;;;;;7.13;83.89;103218.25;5028537;28;46148;-66
2022/01/17 00:35:13;;;;;;;;;40.75;34.00;;;;;7.12;83.58;103218.31;5037201;28;45364;-66
2022/01/17 00:37:39;;;;;;;;;44.75;37.75;;;;;7.19;83.42;103217.97;5044637;28;45440;-66
2022/01/17 00:40:06;;;;;;;;;40.25;35.00;;;;;7.11;83.05;103216.53;5040162;28;45499;-67
2022/01/17 00:42:31;;;;;;;;;40.25;36.00;;;;;7.01;83.65;103224.19;5029157;28;46847;-66
2022/01/17 00:44:56;;;;;;;;;35.50;30.50;;;;;6.92;84.24;103236.25;5039266;28;45204;-66
2022/01/17 00:47:22;;;;;;;;;38.25;36.50;;;;;6.93;84.29;103226.31;5033233;28;45143;-66
2022/01/17 00:49:47;;;;;;;;;37.50;31.50;;;;;7.00;84.24;103231.41;5040042;28;45313;-66
2022/01/17 00:52:13;;;;;;;;;37.75;31.00;;;;;7.09;83.59;103231.94;5026982;28;45385;-66
2022/01/17 00:54:38;;;;;;;;;41.00;33.75;;;;;7.02;83.63;103221.38;5039465;28;45419;-67
2022/01/17 00:57:04;;;;;;;;;44.00;35.00;;;;;7.11;83.60;103238.16;5029406;28;45294;-66
2022/01/17 00:59:30;;;;;;;;;38.00;35.00;;;;;7.06;83.36;103229.38;5039847;28;45173;-66
2022/01/17 01:01:55;;;;;;;;;36.25;33.75;;;;;7.09;83.66;103231.94;5026397;28;46528;-66
2022/01/17 01:04:21;;;;;;;;;36.50;34.25;;;;;7.11;83.89;103221.94;5037026;28;45652;-67
2022/01/17 01:06:46;;;;;;;;;39.50;33.50;;;;;7.13;83.69;103225.47;5034245;28;45388;-66
2022/01/17 01:09:11;;;;;;;;;37.25;31.00;;;;;7.15;83.57;103229.88;5039722;28;45385;-66
2022/01/17 01:11:37;;;;;;;;;36.25;31.00;;;;;7.10;83.21;103228.28;5028808;28;48403;-66
2022/01/17 01:14:04;;;;;;;;;38.25;32.75;;;;;7.11;82.98;103219.25;5024356;28;45322;-66
2022/01/17 01:21:45;;;;;;;;;42.25;34.75;;;;;7.16;83.77;103228.06;5032878;28;45422;-67
2022/01/17 01:29:47;;;;;;;;;41.75;37.00;;;;;6.94;83.44;103223.53;5034110;28;46003;-66
2022/01/17 01:32:16;;;;;;;;;44.50;33.25;;;;;6.99;83.61;103215.25;5038800;28;47164;-66
2022/01/17 01:34:46;;;;;;;;;23.00;19.00;;;;;6.92;83.88;103219.16;5049948;28;45282;-66
2022/01/17 01:37:12;;;;;;;;;45.25;37.50;;;;;6.99;84.24;103226.06;5030649;28;45218;-67
2022/01/17 01:39:38;;;;;;;;;31.00;29.00;;;;;7.11;84.10;103230.06;5051756;28;45521;-66
2022/01/17 01:42:05;;;;;;;;;38.75;28.75;;;;;7.15;83.97;103226.28;5029252;28;46233;-66
2022/01/17 01:44:31;;;;;;;;;42.25;37.00;;;;;7.14;83.30;103232.63;5036799;28;45467;-66
2022/01/17 01:46:57;;;;;;;;;39.00;33.75;;;;;7.14;83.46;103235.34;5032655;28;45321;-66
2022/01/17 01:49:25;;;;;;;;;38.75;36.25;;;;;7.11;83.42;103238.16;5038599;28;45361;-66
2022/01/17 01:51:51;;;;;;;;;40.75;35.75;;;;;7.14;83.42;103232.63;5027399;28;47944;-66
2022/01/17 01:54:17;;;;;;;;;43.75;34.50;;;;;7.13;83.61;103233.56;5050663;28;45346;-67
2022/01/17 01:56:45;;;;;;;;;39.75;34.75;;;;;7.18;83.57;103250.47;5030821;28;45601;-66
2022/01/17 01:59:11;;;;;;;;;42.00;32.75;;;;;7.18;83.30;103236.94;5034617;28;45440;-67
2022/01/17 02:01:37;;;;;;;;;41.50;33.50;;;;;7.07;83.03;103250.06;5044673;28;47046;-66
2022/01/17 02:04:04;;;;;;;;;38.50;34.00;;;;;6.84;83.92;103246.50;5035178;28;45324;-66
2022/01/17 02:06:32;;;;;;;;;33.50;31.00;;;;;6.83;84.18;103242.03;5030741;28;45492;-66
2022/01/17 02:08:57;;;;;;;;;39.75;36.25;;;;;6.86;84.07;103241.91;5036076;28;45268;-66
2022/01/17 02:11:23;;;;;;;;;40.25;34.75;;;;;6.89;84.12;103247.19;5032145;28;46101;-66
2022/01/17 02:13:50;;;;;;;;;37.00;32.75;;;;;6.91;84.00;103239.91;5016412;28;45804;-66
2022/01/17 02:16:16;;;;;;;;;36.25;33.75;;;;;7.00;84.14;103244.91;5010706;28;45412;-66
2022/01/17 02:18:45;;;;;;;;;38.25;34.25;;;;;7.06;83.76;103243.78;5012659;28;45444;-67
2022/01/17 02:21:31;;;;;;;;;44.75;30.75;;;;;7.14;84.19;103235.34;5017712;28;46286;-66
2022/01/17 02:23:57;;;;;;;;;35.00;32.75;;;;;7.12;83.42;103231.81;5022043;28;45326;-66
2022/01/17 02:26:23;;;;;;;;;46.00;37.00;;;;;7.13;83.09;103228.16;5028814;28;45307;-66
2022/01/17 02:28:50;;;;;;;;;42.50;34.75;;;;;7.00;83.47;103225.13;5043069;28;45427;-66
2022/01/17 02:31:17;;;;;;;;;37.75;33.00;;;;;7.04;83.46;103234.84;5033173;28;45539;-66
2022/01/17 02:33:43;;;;;;;;;42.75;34.75;;;;;7.02;83.32;103226.78;5030035;28;45350;-67
2022/01/17 02:36:08;;;;;;;;;42.00;38.50;;;;;7.01;83.96;103232.28;5034139;28;45341;-66
2022/01/17 02:38:34;;;;;;;;;47.50;36.50;;;;;7.01;83.83;103230.44;5030425;28;45471;-66
2022/01/17 02:41:00;;;;;;;;;42.50;32.50;;;;;7.02;83.85;103231.31;5035338;28;45450;-66
2022/01/17 02:43:26;;;;;;;;;45.50;37.00;;;;;7.07;83.90;103231.16;5030832;28;45475;-68
2022/01/17 02:48:25;;;;;;;;;41.50;37.00;;;;;7.04;84.00;103226.75;5033440;28;45200;-67
2022/01/17 02:50:51;;;;;;;;;37.25;28.75;;;;;6.97;83.58;103219.84;5036504;28;45539;-66
2022/01/17 02:53:17;;;;;;;;;39.25;35.50;;;;;6.86;84.07;103214.91;5025859;28;45306;-66
2022/01/17 02:55:50;;;;;;;;;37.50;36.00;;;;;6.86;84.32;103223.00;5037590;28;45829;-66
2022/01/17 02:58:18;;;;;;;;;44.25;39.25;;;;;6.87;84.48;103222.03;5024048;28;45378;-67
2022/01/17 03:00:43;;;;;;;;;41.00;36.00;;;;;6.87;84.10;103232.84;5022090;28;47489;-66
2022/01/17 03:03:21;;;;;;;;;55.00;40.25;;;;;6.83;84.20;103231.22;5025873;28;45404;-66
2022/01/17 03:05:48;;;;;;;;;53.50;41.25;;;;;6.79;84.94;103234.13;5035719;28;45515;-66
2022/01/17 03:08:17;;;;;;;;;45.50;39.00;;;;;6.75;85.21;103238.75;5031847;28;45276;-66
2022/01/17 03:10:46;;;;;;;;;45.25;38.50;;;;;6.84;85.13;103233.00;5052349;28;46282;-67
2022/01/17 03:13:15;;;;;;;;;48.75;35.50;;;;;6.85;84.71;103244.69;5024840;28;45362;-66
2022/01/17 03:15:42;;;;;;;;;49.50;39.50;;;;;6.84;84.89;103243.78;5036604;28;45276;-66
2022/01/17 03:18:08;;;;;;;;;47.25;42.00;;;;;6.90;85.03;103259.75;5024245;28;45654;-67
2022/01/17 03:20:34;;;;;;;;;75.25;57.75;;;;;6.86;84.85;103239.22;5013590;28;45470;-67
2022/01/17 03:23:00;;;;;;;;;56.25;45.00;;;;;6.74;84.59;103249.63;5025391;28;45470;-65
2022/01/17 03:25:27;;;;;;;;;46.50;35.50;;;;;6.69;85.38;103255.22;5019388;28;45617;-65
2022/01/17 03:27:52;;;;;;;;;57.00;42.00;;;;;6.66;85.95;103260.75;5020738;28;45611;-65
2022/01/17 03:30:17;;;;;;;;;60.00;43.25;;;;;6.58;85.95;103255.66;5024896;28;47126;-65
2022/01/17 03:32:43;;;;;;;;;56.75;45.50;;;;;6.64;85.86;103260.84;5025828;28;45358;-65
2022/01/17 03:35:09;;;;;;;;;29.50;27.50;;;;;6.69;86.22;103259.75;5040434;28;45344;-65
2022/01/17 03:37:35;;;;;;;;;51.75;39.50;;;;;6.75;85.71;103265.78;5031554;28;45308;-65
2022/01/17 03:40:00;;;;;;;;;59.75;45.25;;;;;6.82;85.48;103270.00;5038861;28;47083;-64
2022/01/17 03:42:25;;;;;;;;;55.50;40.75;;;;;6.83;85.12;103262.78;5033382;28;45344;-65
2022/01/17 03:44:51;;;;;;;;;48.25;41.75;;;;;6.88;84.88;103264.34;5034436;28;45295;-65
2022/01/17 03:47:17;;;;;;;;;60.00;45.00;;;;;6.86;84.58;103265.34;5036074;28;45497;-64
2022/01/17 03:49:43;;;;;;;;;41.25;38.00;;;;;6.71;85.30;103266.88;5027098;28;45400;-65
2022/01/17 03:52:08;;;;;;;;;51.50;40.75;;;;;6.70;85.49;103267.81;5029552;28;45231;-65
2022/01/17 03:54:34;;;;;;;;;55.50;42.00;;;;;6.69;85.26;103271.44;5033275;28;45683;-65
2022/01/17 03:56:59;;;;;;;;;55.50;41.00;;;;;6.65;85.56;103275.19;5030781;28;45386;-64
2022/01/17 03:59:25;;;;;;;;;45.00;38.25;;;;;6.73;85.83;103280.28;5038838;28;45422;-64
2022/01/17 04:01:51;;;;;;;;;50.75;40.75;;;;;6.78;85.45;103291.81;5045776;28;45968;-65
2022/01/17 04:04:17;;;;;;;;;53.75;38.50;;;;;6.76;85.11;103283.75;5039099;28;45318;-65
2022/01/17 04:06:42;;;;;;;;;61.25;46.50;;;;;6.73;84.92;103294.69;5036495;28;45444;-65
2022/01/17 04:09:08;;;;;;;;;45.50;39.00;;;;;6.76;85.39;103291.88;5039059;28;45538;-65
2022/01/17 04:11:33;;;;;;;;;46.00;37.25;;;;;6.81;84.99;103281.75;5033716;28;45346;-65
2022/01/17 04:13:59;;;;;;;;;47.00;39.00;;;;;6.84;85.18;103303.25;5026121;28;46092;-65
2022/01/17 04:16:24;;;;;;;;;54.25;38.75;;;;;6.84;85.27;103295.13;5050614;28;45554;-65
2022/01/17 04:18:49;;;;;;;;;51.75;41.75;;;;;6.78;85.19;103298.09;5025439;28;46553;-65
2022/01/17 04:21:15;;;;;;;;;54.50;42.50;;;;;6.72;85.56;103308.28;5045937;28;46160;-65
2022/01/17 04:23:40;;;;;;;;;48.75;37.25;;;;;6.71;85.46;103312.78;5027177;28;45886;-65
2022/01/17 04:26:06;;;;;;;;;59.00;48.00;;;;;6.63;85.76;103312.22;5024286;28;45628;-66
2022/01/17 04:28:31;;;;;;;;;52.50;42.25;;;;;6.59;86.32;103307.84;5027892;28;45327;-65
2022/01/17 04:30:57;;;;;;;;;57.50;41.50;;;;;6.57;86.33;103299.84;5037523;28;45286;-66
2022/01/17 04:33:22;;;;;;;;;53.25;41.50;;;;;6.53;86.36;103292.78;5028394;28;45286;-65
2022/01/17 04:35:48;;;;;;;;;47.00;41.25;;;;;6.55;86.96;103293.59;5037905;28;45430;-65
2022/01/17 04:38:17;;;;;;;;;63.00;47.50;;;;;6.51;86.73;103289.25;5030489;28;45594;-65
2022/01/17 04:40:46;;;;;;;;;53.25;43.75;;;;;6.52;86.54;103284.72;5039589;28;45290;-65
2022/01/17 04:43:20;;;;;;;;;57.50;45.50;;;;;6.55;86.71;103290.91;5025990;28;45369;-66
2022/01/17 04:45:46;;;;;;;;;48.50;41.00;;;;;6.70;86.41;103300.22;5039629;28;45420;-65
2022/01/17 04:48:12;;;;;;;;;52.25;41.50;;;;;6.77;86.35;103295.44;5029648;28;46215;-65
2022/01/17 04:50:38;;;;;;;;;64.00;44.75;;;;;6.74;85.78;103293.75;5055787;28;45348;-65
2022/01/17 04:53:03;;;;;;;;;53.50;43.50;;;;;6.70;85.81;103293.94;5034977;28;45488;-65
2022/01/17 04:55:29;;;;;;;;;57.75;44.00;;;;;6.74;85.97;103301.84;5012608;28;45724;-65
2022/01/17 04:57:58;;;;;;;;;49.25;41.50;;;;;6.68;85.44;103307.50;5024051;28;46173;-65
2022/01/17 05:00:26;;;;;;;;;53.75;39.50;;;;;6.57;85.07;103296.25;5006133;28;45586;-65
2022/01/17 05:02:52;;;;;;;;;55.25;44.00;;;;;6.53;85.79;103292.78;5029654;28;45151;-65
2022/01/17 05:05:18;;;;;;;;;51.75;40.50;;;;;6.49;85.87;103288.44;5025497;28;45334;-65
2022/01/17 05:07:43;;;;;;;;;51.75;43.00;;;;;6.50;85.45;103301.00;5028696;28;45701;-65
2022/01/17 05:10:14;;;;;;;;;42.00;38.00;;;;;6.45;85.48;103294.91;5042625;28;45402;-65
2022/01/17 05:12:40;;;;;;;;;46.75;38.75;;;;;6.44;85.36;103305.75;5024981;28;45377;-65
2022/01/17 05:15:17;;;;;;;;;49.25;40.50;;;;;6.42;85.04;103316.63;5024942;28;45484;-65
2022/01/17 05:17:58;;;;;;;;;44.75;38.00;;;;;6.38;85.13;103316.78;5016726;28;46208;-65
2022/01/17 05:20:23;;;;;;;;;47.50;40.00;;;;;6.36;85.42;103318.66;5014675;28;45495;-65
2022/01/17 05:22:49;;;;;;;;;43.75;37.00;;;;;6.34;85.06;103317.88;5017060;28;45323;-67
2022/01/17 05:25:14;;;;;;;;;54.50;39.50;;;;;6.32;85.42;103314.34;5013520;28;45365;-64
2022/01/17 05:27:40;;;;;;;;;50.25;40.00;;;;;6.27;85.52;103321.75;5023355;28;45450;-64
2022/01/17 05:30:09;;;;;;;;;48.25;40.25;;;;;6.24;85.16;103320.91;5022609;28;45322;-66
2022/01/17 05:32:35;;;;;;;;;53.75;41.00;;;;;6.25;85.43;103319.09;5022303;28;45442;-67
2022/01/17 05:35:01;;;;;;;;;51.50;41.50;;;;;6.19;85.52;103314.81;5012596;28;45520;-65
2022/01/17 05:37:26;;;;;;;;;41.50;37.00;;;;;6.16;84.79;103324.81;5017165;28;45410;-66
2022/01/17 05:39:52;;;;;;;;;52.75;41.00;;;;;6.13;85.69;103327.66;5022684;28;45258;-65
2022/01/17 05:42:18;;;;;;;;;65.25;47.75;;;;;6.12;85.59;103326.78;5027810;28;45400;-65
2022/01/17 05:44:47;;;;;;;;;54.00;44.50;;;;;6.10;85.98;103328.63;5021307;28;45590;-65
2022/01/17 05:47:14;;;;;;;;;61.75;45.00;;;;;6.10;86.25;103344.84;5033175;28;45425;-65
2022/01/17 05:49:39;;;;;;;;;61.75;48.00;;;;;6.11;86.50;103343.03;5038030;28;45263;-65
2022/01/17 05:52:05;;;;;;;;;54.50;45.25;;;;;6.10;86.52;103352.06;5027942;28;45320;-65
2022/01/17 05:54:31;;;;;;;;;64.25;46.75;;;;;6.09;86.80;103350.28;5037101;28;45432;-67
2022/01/17 05:56:56;;;;;;;;;61.00;44.00;;;;;6.10;87.02;103349.34;5028281;28;46482;-64
2022/01/17 05:59:22;;;;;;;;;60.00;44.00;;;;;6.07;86.90;103346.75;5023619;28;45405;-67
2022/01/17 06:01:47;;;;;;;;;58.00;40.75;;;;;6.06;86.95;103351.28;5016702;28;45724;-67
2022/01/17 06:04:12;;;;;;;;;54.50;44.75;;;;;6.05;86.44;103343.25;5030482;28;45524;-67
2022/01/17 06:06:38;;;;;;;;;56.75;45.75;;;;;6.05;86.73;103341.44;5025346;28;45351;-67
2022/01/17 06:09:04;;;;;;;;;53.50;45.25;;;;;6.05;86.25;103340.56;5008733;28;45375;-67
2022/01/17 06:11:30;;;;;;;;;51.75;42.75;;;;;6.01;86.55;103341.59;5031381;28;45457;-65
2022/01/17 06:13:56;;;;;;;;;53.50;42.25;;;;;5.98;86.33;103341.72;5023997;28;45557;-65
2022/01/17 06:16:21;;;;;;;;;54.25;40.50;;;;;5.95;86.17;103342.69;5030526;28;45544;-65
2022/01/17 06:18:46;;;;;;;;;51.00;42.75;;;;;5.96;85.94;103348.97;5023055;28;45244;-65
2022/01/17 06:21:12;;;;;;;;;52.50;41.75;;;;;5.89;85.25;103353.72;5017570;28;45321;-65
2022/01/17 06:23:37;;;;;;;;;49.75;43.00;;;;;5.83;86.08;103351.19;5025830;28;45672;-65
2022/01/17 06:26:02;;;;;;;;;45.50;37.25;;;;;5.77;86.20;103357.66;5000899;28;47106;-65
2022/01/17 06:28:28;;;;;;;;;60.50;46.00;;;;;5.76;86.86;103360.44;5023600;28;45393;-66
2022/01/17 06:30:53;;;;;;;;;52.00;41.00;;;;;5.79;86.90;103369.31;5016989;28;45437;-66
2022/01/17 06:33:19;;;;;;;;;57.50;46.50;;;;;5.79;86.79;103379.22;5014456;28;45211;-65
2022/01/17 06:35:44;;;;;;;;;63.50;50.25;;;;;5.78;87.32;103390.94;5026219;28;45398;-65
2022/01/17 06:38:11;;;;;;;;;61.25;48.25;;;;;5.79;86.99;103384.59;5020624;28;45239;-65
2022/01/17 06:40:36;;;;;;;;;59.50;44.75;;;;;5.77;87.12;103387.34;5020380;28;46171;-65
2022/01/17 06:43:02;;;;;;;;;62.50;48.75;;;;;5.77;86.88;103395.44;5042606;28;45992;-65
2022/01/17 06:45:27;;;;;;;;;57.75;47.75;;;;;5.76;86.41;103398.22;5054116;28;47616;-65
2022/01/17 06:47:52;;;;;;;;;49.50;43.50;;;;;5.72;86.65;103408.22;5030175;28;45444;-65
2022/01/17 06:50:18;;;;;;;;;60.50;45.75;;;;;5.73;86.47;103418.06;5038468;28;45330;-65
2022/01/17 06:52:44;;;;;;;;;66.00;48.25;;;;;5.72;86.54;103420.81;5021851;28;45456;-66
2022/01/17 06:55:10;;;;;;;;;66.25;50.50;;;;;5.70;86.70;103409.19;5029513;28;45682;-66
2022/01/17 06:57:36;;;;;;;;;61.25;48.75;;;;;5.70;86.51;103399.28;5018522;28;45777;-66
2022/01/17 07:00:05;;;;;;;;;48.75;42.00;;;;;5.62;86.95;103393.31;5029536;28;45341;-66
2022/01/17 07:02:30;;;;;;;;;52.25;42.75;;;;;5.59;87.02;103381.72;5041239;28;45468;-65
2022/01/17 07:04:55;;;;;;;;;58.50;45.75;;;;;5.61;87.13;103401.44;5040665;28;46864;-66
2022/01/17 07:07:21;;;;;;;;;57.50;47.00;;;;;5.58;86.89;103406.91;5028947;28;45578;-66
2022/01/17 07:09:46;;;;;;;;;59.50;46.25;;;;;5.56;87.03;103403.38;5036429;28;45551;-67
2022/01/17 07:12:12;;;;;;;;;67.25;45.75;;;;;5.54;86.86;103405.28;5018355;28;45480;-66
2022/01/17 07:14:41;;;;;;;;;59.75;47.25;;;;;5.49;87.09;103414.38;5038614;28;46350;-66
2022/01/17 07:17:09;;;;;;;;;67.25;50.75;;;;;5.40;87.04;103417.41;5035307;28;45397;-66
2022/01/17 07:19:34;;;;;;;;;64.50;50.75;;;;;5.44;87.09;103448.72;5026877;28;45570;-66
2022/01/17 07:22:00;;;;;;;;;54.75;44.50;;;;;5.47;87.11;103472.00;5022570;28;45603;-66
2022/01/17 07:24:25;;;;;;;;;55.25;45.25;;;;;5.48;87.44;103469.22;5023147;28;45643;-66
2022/01/17 07:26:51;;;;;;;;;65.00;49.75;;;;;5.49;86.86;103468.31;5018304;28;45833;-66
2022/01/17 07:29:17;;;;;;;;;58.00;48.50;;;;;5.51;86.88;103456.59;5031344;28;45369;-67
2022/01/17 07:31:43;;;;;;;;;54.25;45.50;;;;;5.46;86.18;103444.16;5030474;28;45533;-66
2022/01/17 07:34:08;;;;;;;;;58.50;45.75;;;;;5.45;86.40;103447.78;5031165;28;45426;-66
2022/01/17 07:36:33;;;;;;;;;59.75;46.50;;;;;5.45;86.18;103431.59;5024107;28;45271;-66
2022/01/17 07:38:59;;;;;;;;;7.75;2.75;;;;;5.39;85.87;103433.63;5036551;28;45705;-66
2022/01/17 07:41:26;;;;;;;;;59.50;47.00;;;;;5.41;86.10;103437.13;5029422;28;47252;-66
2022/01/17 07:43:53;;;;;;;;;61.75;46.50;;;;;5.40;86.33;103430.88;5031015;28;46613;-66
2022/01/17 07:46:24;;;;;;;;;72.50;53.75;;;;;5.38;85.88;103438.13;5023252;28;45452;-65
2022/01/17 07:51:23;;;;;;;;;53.25;44.00;;;;;5.40;85.78;103440.78;5035579;28;45431;-66
2022/01/17 07:53:49;;;;;;;;;47.50;41.00;;;;;5.40;86.14;103444.38;5031992;28;46249;-65
2022/01/17 07:56:14;;;;;;;;;63.00;50.00;;;;;5.36;86.13;103449.88;5035940;28;45343;-66
2022/01/17 07:58:41;;;;;;;;;49.25;40.25;;;;;5.40;86.18;103460.53;5032831;28;45389;-66
2022/01/17 08:01:07;;;;;;;;;48.25;41.75;;;;;5.42;85.99;103474.81;5035657;28;45579;-66
2022/01/17 08:03:33;;;;;;;;;58.00;41.50;;;;;5.43;86.12;103452.34;5033052;28;45330;-67
2022/01/17 08:05:59;;;;;;;;;51.25;42.75;;;;;5.45;85.61;103471.16;5037694;28;45399;-66
2022/01/17 08:08:25;;;;;;;;;52.50;43.00;;;;;5.46;85.86;103465.72;5049372;28;45342;-66
2022/01/17 08:10:50;;;;;;;;;48.00;39.50;;;;;5.48;86.06;103455.75;5053745;28;45241;-66
2022/01/17 08:13:16;;;;;;;;;40.75;34.50;;;;;5.55;85.64;103460.97;5024468;28;45621;-66
2022/01/17 08:15:42;;;;;;;;;52.25;43.00;;;;;5.60;86.02;103467.09;5035179;28;45423;-66
2022/01/17 08:18:07;;;;;;;;;47.75;40.75;;;;;5.65;85.64;103462.41;5024877;28;45351;-66
2022/01/17 08:20:33;;;;;;;;;52.75;41.50;;;;;5.70;85.83;103469.41;5035859;28;45370;-66
2022/01/17 08:22:58;;;;;;;;;56.25;44.25;;;;;5.77;85.32;103475.50;5026580;28;45410;-67
2022/01/17 08:25:24;;;;;;;;;60.00;43.00;;;;;5.82;85.28;103476.22;5023349;28;45320;-67
2022/01/17 08:27:49;;;;;;;;;60.75;43.25;;;;;5.86;85.03;103477.88;5037154;28;45432;-66
2022/01/17 08:30:15;;;;;;;;;56.50;44.50;;;;;5.92;85.24;103475.00;5038835;28;45304;-67
2022/01/17 08:32:41;;;;;;;;;59.75;45.00;;;;;6.02;84.86;103479.16;5028746;28;45504;-68
2022/01/17 08:35:07;;;;;;;;;65.25;48.50;;;;;6.04;84.74;103471.91;5037931;28;45305;-67
2022/01/17 08:37:33;;;;;;;;;62.25;46.75;;;;;6.14;84.77;103478.72;5040751;28;45295;-67
2022/01/17 08:40:00;;;;;;;;;69.75;53.75;;;;;6.23;84.33;103488.34;5034443;28;45425;-67
2022/01/17 08:42:27;;;;;;;;;69.50;51.75;;;;;6.30;83.98;103505.19;5041920;28;47961;-67
2022/01/17 08:44:56;;;;;;;;;60.50;47.00;;;;;6.35;84.54;103504.13;5032500;28;45349;-67
2022/01/17 08:47:22;;;;;;;;;56.25;45.00;;;;;6.44;83.69;103497.50;5025631;28;45340;-67
2022/01/17 08:49:48;;;;;;;;;65.00;49.00;;;;;6.62;84.10;103494.13;5037355;28;45583;-66
2022/01/17 08:52:15;;;;;;;;;64.00;48.50;;;;;6.70;84.00;103494.75;5026980;28;45927;-67
2022/01/17 08:54:42;;;;;;;;;59.75;45.25;;;;;6.86;83.77;103500.47;5037636;28;45369;-66
2022/01/17 08:57:08;;;;;;;;;63.00;49.75;;;;;7.00;82.99;103499.00;5040927;28;45379;-67
2022/01/17 08:59:33;;;;;;;;;50.25;41.50;;;;;6.92;82.72;103501.09;5039086;28;45417;-67
2022/01/17 09:01:59;;;;;;;;;61.00;46.25;;;;;6.95;82.25;103495.56;5032110;28;45842;-67
2022/01/17 09:04:25;;;;;;;;;66.50;48.75;;;;;6.88;82.00;103501.25;5037354;28;45317;-67
2022/01/17 09:06:50;;;;;;;;;63.75;49.25;;;;;6.97;82.36;103495.50;5030339;28;45470;-67
2022/01/17 09:09:16;;;;;;;;;46.50;42.25;;;;;6.99;82.42;103501.75;5041564;28;45370;-67
2022/01/17 09:11:42;;;;;;;;;65.50;48.00;;;;;7.15;82.44;103504.75;5032328;28;46186;-67
2022/01/17 09:14:08;;;;;;;;;48.50;39.50;;;;;7.09;81.59;103504.97;5023126;28;45491;-67
2022/01/17 09:16:34;;;;;;;;;60.75;48.75;;;;;7.00;82.10;103515.22;5025694;28;45501;-67
2022/01/17 09:19:01;;;;;;;;;57.00;44.25;;;;;7.12;82.11;103523.78;5025516;28;45517;-67
2022/01/17 09:21:27;;;;;;;;;65.00;49.75;;;;;7.14;81.75;103532.72;5032995;28;45354;-66
2022/01/17 09:23:57;;;;;;;;;58.50;48.00;;;;;7.15;81.76;103545.31;5026804;28;45318;-67
2022/01/17 09:26:25;;;;;;;;;61.50;47.00;;;;;7.22;81.76;103549.53;5018250;28;45445;-67
2022/01/17 09:28:51;;;;;;;;;58.00;48.00;;;;;7.32;81.85;103548.22;5026647;28;46546;-67
2022/01/17 09:31:16;;;;;;;;;55.50;46.25;;;;;7.38;81.15;103548.88;5034801;28;46343;-67
2022/01/17 09:33:42;;;;;;;;;55.75;42.25;;;;;7.50;80.96;103547.53;5031337;28;45413;-67
2022/01/17 09:36:07;;;;;;;;;55.00;43.50;;;;;7.60;81.25;103550.72;5033212;28;45300;-67
2022/01/17 09:38:32;;;;;;;;;44.50;37.00;;;;;7.53;79.69;103563.63;5048023;28;45448;-67
2022/01/17 09:40:58;;;;;;;;;42.00;36.75;;;;;7.55;80.13;103561.75;5050763;28;47032;-67
2022/01/17 09:43:24;;;;;;;;;59.75;42.50;;;;;7.41;79.40;103554.19;5033242;28;45385;-68
2022/01/17 09:45:51;;;;;;;;;44.50;37.50;;;;;7.40;79.81;103554.22;5027591;28;46190;-67
2022/01/17 09:48:20;;;;;;;;;47.50;38.25;;;;;7.44;79.36;103542.38;5021072;28;45558;-67
2022/01/17 09:50:58;;;;;;;;;40.25;37.50;;;;;7.40;80.05;103543.41;5037127;28;47128;-67
2022/01/17 09:53:28;;;;;;;;;51.75;39.75;;;;;7.37;80.30;103567.91;5039802;28;45395;-67
2022/01/17 09:55:58;;;;;;;;;48.25;39.00;;;;;7.48;80.89;103581.88;5037288;28;45337;-67
2022/01/17 09:58:24;;;;;;;;;44.25;35.00;;;;;7.57;79.73;103572.53;5030805;28;45524;-67
2022/01/17 10:00:50;;;;;;;;;40.25;35.50;;;;;7.69;79.12;103586.44;5037973;28;45585;-67
2022/01/17 10:03:17;;;;;;;;;43.25;36.75;;;;;7.65;78.72;103592.94;5047332;28;45389;-67
2022/01/17 10:05:42;;;;;;;;;42.75;32.25;;;;;7.74;78.75;103589.84;5038915;28;45267;-68
2022/01/17 10:08:15;;;;;;;;;47.00;36.25;;;;;7.80;78.33;103584.19;5024413;28;45618;-67
2022/01/17 10:10:44;;;;;;;;;30.00;30.00;;;;;7.62;78.76;103590.31;5033468;28;45475;-67
2022/01/17 10:13:32;;;;;;;;;45.50;37.00;;;;;7.71;79.36;103599.91;5025236;28;45342;-67
2022/01/17 10:16:07;;;;;;;;;33.00;28.75;;;;;7.74;78.69;103597.94;5034719;28;45524;-68
2022/01/17 10:18:36;;;;;;;;;42.75;36.75;;;;;7.72;78.49;103591.75;5024074;28;45558;-67
2022/01/17 10:21:09;;;;;;;;;49.25;40.75;;;;;7.75;78.87;103605.13;5031107;28;45310;-66
2022/01/17 10:37:16;;;;;;;;;48.75;37.25;;;;;7.84;77.99;103601.19;5030837;28;45369;-66
2022/01/17 10:39:54;;;;;;;;;49.75;36.50;;;;;7.95;77.78;103604.34;5050773;28;45514;-65
2022/01/17 10:42:45;;;;;;;;;56.50;40.25;;;;;7.86;77.93;103606.53;5024840;28;47290;-65
2022/01/17 10:45:14;;;;;;;;;47.75;36.50;;;;;7.95;78.98;103609.78;5037420;28;45272;-66
2022/01/17 10:47:43;;;;;;;;;44.75;39.25;;;;;7.87;78.74;103600.19;5023047;28;45406;-66
2022/01/17 10:50:14;;;;;;;;;57.00;41.75;;;;;7.96;78.73;103586.28;5040877;28;45492;-67
2022/01/17 10:52:51;;;;;;;;;54.00;43.75;;;;;7.87;78.77;103586.66;5023860;28;45687;-66
2022/01/17 10:55:18;;;;;;;;;57.50;43.00;;;;;7.80;78.58;103565.25;5016383;28;45488;-66
2022/01/17 10:57:47;;;;;;;;;56.50;43.50;;;;;7.93;78.98;103553.91;5022823;28;45373;-68
2022/01/17 11:00:19;;;;;;;;;50.25;39.25;;;;;7.79;79.37;103558.06;5042709;28;45328;-66
2022/01/17 11:02:57;;;;;;;;;52.00;40.50;;;;;7.79;78.96;103554.47;5026423;28;47191;-66
2022/01/17 11:05:23;;;;;;;;;54.00;41.00;;;;;7.86;79.72;103561.41;5040107;28;45352;-66
2022/01/17 11:07:53;;;;;;;;;59.00;46.75;;;;;8.03;79.27;103558.03;5020531;28;45484;-66
2022/01/17 11:10:22;;;;;;;;;33.25;27.00;;;;;8.01;78.50;103566.19;5030865;28;45347;-65
2022/01/17 11:12:50;;;;;;;;;48.00;38.00;;;;;7.82;78.67;103563.34;5038496;28;47024;-66
2022/01/17 11:15:17;;;;;;;;;51.50;36.75;;;;;8.00;79.01;103564.44;5031144;28;45271;-65
2022/01/17 11:17:51;;;;;;;;;50.00;41.75;;;;;7.96;78.65;103572.75;5014502;28;45363;-66
2022/01/17 11:20:20;;;;;;;;;45.25;39.50;;;;;8.00;78.49;103560.84;5033816;28;45230;-66
2022/01/17 11:22:49;;;;;;;;;48.50;40.50;;;;;8.08;78.72;103566.81;5023144;28;45341;-66
2022/01/17 11:25:21;;;;;;;;;56.25;43.25;;;;;8.01;78.36;103566.19;5020789;28;45427;-67
2022/01/17 11:27:48;;;;;;;;;53.50;43.75;;;;;8.05;78.25;103564.22;5039562;28;45761;-66
2022/01/17 11:30:15;;;;;;;;;58.25;47.00;;;;;8.14;79.00;103547.59;5020489;28;45486;-66
2022/01/17 11:32:41;;;;;;;;;52.00;43.25;;;;;8.33;78.89;103545.91;5026419;28;45350;-66
2022/01/17 11:35:08;;;;;;;;;55.25;40.25;;;;;8.48;78.53;103542.53;5050306;28;45308;-66
2022/01/17 11:37:40;;;;;;;;;57.50;38.75;;;;;8.46;77.38;103541.75;5028761;28;45228;-68
2022/01/17 11:40:08;;;;;;;;;51.25;41.50;;;;;8.43;77.03;103547.28;5038281;28;45386;-66
2022/01/17 11:42:33;;;;;;;;;56.50;43.25;;;;;8.49;77.51;103548.84;5032897;28;45437;-66
2022/01/17 11:45:00;;;;;;;;;54.25;43.75;;;;;8.40;77.33;103541.97;5039035;28;45172;-66
2022/01/17 11:47:47;;;;;;;;;58.25;38.50;;;;;8.38;77.40;103546.59;5036485;28;45393;-66